sensor_id;sensor_type;location;lat;lon;timestamp;P1;durP1;ratioP1;P2;durP2;ratioP2
36009;SDS011;22076;52.182;5.404;2023-09-19T00:01:41;6.38;;;1.65;;
36009;SDS011;22076;52.182;5.404;2023-09-19T00:04:11;11.13;;;1.90;;
36009;SDS011;22076;52.182;5.404;2023-09-19T00:06:37;6.22;;;1.92;;
36009;SDS011;22076;52.182;5.404;2023-09-19T00:09:04;10.05;;;2.22;;
36009;SDS011;22076;52.182;5.404;2023-09-19T00:11:35;7.07;;;2.05;;
36009;SDS011;22076;52.182;5.404;2023-09-19T00:14:02;6.35;;;2.15;;
36009;SDS011;22076;52.182;5.404;2023-09-19T00:16:30;5.78;;;1.73;;
36009;SDS011;22076;52.182;5.404;2023-09-19T00:18:58;5.57;;;1.58;;
36009;SDS011;22076;52.182;5.404;2023-09-19T00:21:26;8.93;;;1.90;;
36009;SDS011;22076;52.182;5.404;2023-09-19T00:23:53;5.40;;;1.23;;
36009;SDS011;22076;52.182;5.404;2023-09-19T00:26:20;9.10;;;1.60;;
36009;SDS011;22076;52.182;5.404;2023-09-19T00:28:47;6.60;;;1.73;;
36009;SDS011;22076;52.182;5.404;2023-09-19T00:31:13;6.57;;;1.58;;
36009;SDS011;22076;52.182;5.404;2023-09-19T00:33:40;4.72;;;1.77;;
36009;SDS011;22076;52.182;5.404;2023-09-19T00:36:07;6.85;;;1.92;;
36009;SDS011;22076;52.182;5.404;2023-09-19T00:38:35;4.85;;;1.52;;
36009;SDS011;22076;52.182;5.404;2023-09-19T00:41:02;5.75;;;1.25;;
36009;SDS011;22076;52.182;5.404;2023-09-19T00:43:29;10.85;;;2.22;;
36009;SDS011;22076;52.182;5.404;2023-09-19T00:46:00;2.70;;;1.13;;
36009;SDS011;22076;52.182;5.404;2023-09-19T00:48:28;11.68;;;1.90;;
36009;SDS011;22076;52.182;5.404;2023-09-19T00:50:55;10.82;;;2.10;;
36009;SDS011;22076;52.182;5.404;2023-09-19T00:53:25;9.30;;;2.03;;
36009;SDS011;22076;52.182;5.404;2023-09-19T00:55:53;5.70;;;1.30;;
36009;SDS011;22076;52.182;5.404;2023-09-19T00:58:21;6.03;;;1.52;;
36009;SDS011;22076;52.182;5.404;2023-09-19T01:00:47;9.65;;;2.05;;
36009;SDS011;22076;52.182;5.404;2023-09-19T01:03:15;7.00;;;1.92;;
36009;SDS011;22076;52.182;5.404;2023-09-19T01:05:43;3.05;;;1.75;;
36009;SDS011;22076;52.182;5.404;2023-09-19T01:08:10;7.68;;;1.58;;
36009;SDS011;22076;52.182;5.404;2023-09-19T01:10:37;10.45;;;2.30;;
36009;SDS011;22076;52.182;5.404;2023-09-19T01:13:13;5.07;;;1.50;;
36009;SDS011;22076;52.182;5.404;2023-09-19T01:15:49;5.25;;;1.83;;
36009;SDS011;22076;52.182;5.404;2023-09-19T01:18:25;4.90;;;1.55;;
36009;SDS011;22076;52.182;5.404;2023-09-19T01:21:00;7.95;;;1.52;;
36009;SDS011;22076;52.182;5.404;2023-09-19T01:23:40;8.57;;;1.70;;
36009;SDS011;22076;52.182;5.404;2023-09-19T01:26:30;4.13;;;1.35;;
36009;SDS011;22076;52.182;5.404;2023-09-19T01:29:29;8.02;;;1.88;;
36009;SDS011;22076;52.182;5.404;2023-09-19T01:32:06;3.45;;;1.30;;
36009;SDS011;22076;52.182;5.404;2023-09-19T01:34:45;7.15;;;2.03;;
36009;SDS011;22076;52.182;5.404;2023-09-19T01:37:15;5.40;;;1.48;;
36009;SDS011;22076;52.182;5.404;2023-09-19T01:39:45;7.18;;;1.80;;
36009;SDS011;22076;52.182;5.404;2023-09-19T01:42:15;6.03;;;1.52;;
36009;SDS011;22076;52.182;5.404;2023-09-19T01:44:51;5.40;;;1.83;;
36009;SDS011;22076;52.182;5.404;2023-09-19T01:47:26;8.00;;;2.15;;
36009;SDS011;22076;52.182;5.404;2023-09-19T01:49:59;5.85;;;1.67;;
36009;SDS011;22076;52.182;5.404;2023-09-19T01:52:48;6.63;;;2.15;;
36009;SDS011;22076;52.182;5.404;2023-09-19T01:55:20;2.20;;;0.93;;
36009;SDS011;22076;52.182;5.404;2023-09-19T01:57:51;8.85;;;1.90;;
36009;SDS011;22076;52.182;5.404;2023-09-19T02:00:24;10.80;;;2.38;;
36009;SDS011;22076;52.182;5.404;2023-09-19T02:02:56;3.70;;;1.52;;
36009;SDS011;22076;52.182;5.404;2023-09-19T02:05:26;5.40;;;2.13;;
36009;SDS011;22076;52.182;5.404;2023-09-19T02:07:53;4.80;;;2.15;;
36009;SDS011;22076;52.182;5.404;2023-09-19T02:10:20;5.82;;;2.05;;
36009;SDS011;22076;52.182;5.404;2023-09-19T02:12:47;8.57;;;1.83;;
36009;SDS011;22076;52.182;5.404;2023-09-19T02:15:14;9.25;;;2.00;;
36009;SDS011;22076;52.182;5.404;2023-09-19T02:17:42;6.63;;;2.33;;
36009;SDS011;22076;52.182;5.404;2023-09-19T02:20:10;13.07;;;1.88;;
36009;SDS011;22076;52.182;5.404;2023-09-19T02:22:39;5.57;;;1.70;;
36009;SDS011;22076;52.182;5.404;2023-09-19T02:25:06;12.68;;;2.70;;
36009;SDS011;22076;52.182;5.404;2023-09-19T02:27:33;8.45;;;2.15;;
36009;SDS011;22076;52.182;5.404;2023-09-19T02:30:00;7.25;;;2.50;;
36009;SDS011;22076;52.182;5.404;2023-09-19T02:32:35;7.10;;;2.42;;
36009;SDS011;22076;52.182;5.404;2023-09-19T02:35:04;5.53;;;1.63;;
36009;SDS011;22076;52.182;5.404;2023-09-19T02:37:33;9.40;;;2.10;;
36009;SDS011;22076;52.182;5.404;2023-09-19T02:42:44;10.75;;;2.60;;
36009;SDS011;22076;52.182;5.404;2023-09-19T02:45:15;7.78;;;1.92;;
36009;SDS011;22076;52.182;5.404;2023-09-19T02:47:42;6.70;;;1.45;;
36009;SDS011;22076;52.182;5.404;2023-09-19T02:50:09;9.55;;;2.17;;
36009;SDS011;22076;52.182;5.404;2023-09-19T02:52:40;5.38;;;2.03;;
36009;SDS011;22076;52.182;5.404;2023-09-19T02:55:09;4.43;;;1.40;;
36009;SDS011;22076;52.182;5.404;2023-09-19T02:57:36;5.90;;;1.20;;
36009;SDS011;22076;52.182;5.404;2023-09-19T03:00:06;9.05;;;2.55;;
36009;SDS011;22076;52.182;5.404;2023-09-19T03:02:35;11.95;;;2.40;;
36009;SDS011;22076;52.182;5.404;2023-09-19T03:05:02;5.72;;;1.65;;
36009;SDS011;22076;52.182;5.404;2023-09-19T03:07:30;3.90;;;1.17;;
36009;SDS011;22076;52.182;5.404;2023-09-19T03:09:58;5.20;;;1.73;;
36009;SDS011;22076;52.182;5.404;2023-09-19T03:12:24;9.23;;;2.55;;
36009;SDS011;22076;52.182;5.404;2023-09-19T03:17:20;6.40;;;1.83;;
36009;SDS011;22076;52.182;5.404;2023-09-19T03:19:47;6.93;;;2.15;;
36009;SDS011;22076;52.182;5.404;2023-09-19T03:22:14;8.50;;;2.10;;
36009;SDS011;22076;52.182;5.404;2023-09-19T03:24:41;6.55;;;1.77;;
36009;SDS011;22076;52.182;5.404;2023-09-19T03:27:10;8.52;;;1.80;;
36009;SDS011;22076;52.182;5.404;2023-09-19T03:29:39;7.85;;;1.60;;
36009;SDS011;22076;52.182;5.404;2023-09-19T03:32:05;9.90;;;2.17;;
36009;SDS011;22076;52.182;5.404;2023-09-19T03:34:32;11.20;;;2.13;;
36009;SDS011;22076;52.182;5.404;2023-09-19T03:36:58;16.42;;;2.63;;
36009;SDS011;22076;52.182;5.404;2023-09-19T03:39:25;13.00;;;2.35;;
36009;SDS011;22076;52.182;5.404;2023-09-19T03:41:52;12.52;;;2.22;;
36009;SDS011;22076;52.182;5.404;2023-09-19T03:44:20;19.05;;;3.40;;
36009;SDS011;22076;52.182;5.404;2023-09-19T03:46:47;11.85;;;2.53;;
36009;SDS011;22076;52.182;5.404;2023-09-19T03:49:13;9.35;;;2.17;;
36009;SDS011;22076;52.182;5.404;2023-09-19T03:51:40;10.55;;;2.53;;
36009;SDS011;22076;52.182;5.404;2023-09-19T03:54:07;8.02;;;2.03;;
36009;SDS011;22076;52.182;5.404;2023-09-19T03:56:33;5.15;;;1.65;;
36009;SDS011;22076;52.182;5.404;2023-09-19T03:59:00;3.13;;;1.30;;
36009;SDS011;22076;52.182;5.404;2023-09-19T04:01:29;6.78;;;1.88;;
36009;SDS011;22076;52.182;5.404;2023-09-19T04:03:57;5.88;;;1.77;;
36009;SDS011;22076;52.182;5.404;2023-09-19T04:06:24;12.82;;;2.58;;
36009;SDS011;22076;52.182;5.404;2023-09-19T04:08:52;8.45;;;2.42;;
36009;SDS011;22076;52.182;5.404;2023-09-19T04:11:19;12.98;;;2.80;;
36009;SDS011;22076;52.182;5.404;2023-09-19T04:13:46;7.07;;;1.88;;
36009;SDS011;22076;52.182;5.404;2023-09-19T04:16:13;5.85;;;1.98;;
36009;SDS011;22076;52.182;5.404;2023-09-19T04:18:41;8.75;;;2.20;;
36009;SDS011;22076;52.182;5.404;2023-09-19T04:21:07;6.47;;;2.20;;
36009;SDS011;22076;52.182;5.404;2023-09-19T04:23:35;9.57;;;2.30;;
36009;SDS011;22076;52.182;5.404;2023-09-19T04:26:07;4.80;;;1.60;;
36009;SDS011;22076;52.182;5.404;2023-09-19T04:28:34;11.65;;;2.50;;
36009;SDS011;22076;52.182;5.404;2023-09-19T04:31:03;7.53;;;1.73;;
36009;SDS011;22076;52.182;5.404;2023-09-19T04:33:30;14.43;;;2.00;;
36009;SDS011;22076;52.182;5.404;2023-09-19T04:36:01;8.27;;;1.90;;
36009;SDS011;22076;52.182;5.404;2023-09-19T04:38:28;11.07;;;2.30;;
36009;SDS011;22076;52.182;5.404;2023-09-19T04:40:56;16.25;;;2.80;;
36009;SDS011;22076;52.182;5.404;2023-09-19T04:43:23;13.98;;;2.53;;
36009;SDS011;22076;52.182;5.404;2023-09-19T04:45:50;10.77;;;2.35;;
36009;SDS011;22076;52.182;5.404;2023-09-19T04:48:20;9.07;;;2.30;;
36009;SDS011;22076;52.182;5.404;2023-09-19T04:50:51;9.20;;;2.13;;
36009;SDS011;22076;52.182;5.404;2023-09-19T04:53:19;9.90;;;2.47;;
36009;SDS011;22076;52.182;5.404;2023-09-19T04:55:49;7.47;;;1.88;;
36009;SDS011;22076;52.182;5.404;2023-09-19T04:58:18;15.43;;;2.35;;
36009;SDS011;22076;52.182;5.404;2023-09-19T05:00:45;9.80;;;2.03;;
36009;SDS011;22076;52.182;5.404;2023-09-19T05:03:12;7.10;;;1.92;;
36009;SDS011;22076;52.182;5.404;2023-09-19T05:05:38;14.85;;;3.38;;
36009;SDS011;22076;52.182;5.404;2023-09-19T05:08:06;8.88;;;2.75;;
36009;SDS011;22076;52.182;5.404;2023-09-19T05:10:35;5.15;;;1.73;;
36009;SDS011;22076;52.182;5.404;2023-09-19T05:13:03;7.35;;;2.42;;
36009;SDS011;22076;52.182;5.404;2023-09-19T05:15:30;8.38;;;2.05;;
36009;SDS011;22076;52.182;5.404;2023-09-19T05:17:56;9.57;;;2.42;;
36009;SDS011;22076;52.182;5.404;2023-09-19T05:20:23;9.02;;;2.38;;
36009;SDS011;22076;52.182;5.404;2023-09-19T05:22:57;8.40;;;2.20;;
36009;SDS011;22076;52.182;5.404;2023-09-19T05:25:26;9.20;;;2.50;;
36009;SDS011;22076;52.182;5.404;2023-09-19T05:27:55;10.82;;;2.25;;
36009;SDS011;22076;52.182;5.404;2023-09-19T05:30:23;11.75;;;2.25;;
36009;SDS011;22076;52.182;5.404;2023-09-19T05:32:52;11.05;;;2.58;;
36009;SDS011;22076;52.182;5.404;2023-09-19T05:35:19;10.85;;;2.55;;
36009;SDS011;22076;52.182;5.404;2023-09-19T05:37:46;9.50;;;1.98;;
36009;SDS011;22076;52.182;5.404;2023-09-19T05:40:16;9.40;;;2.13;;
36009;SDS011;22076;52.182;5.404;2023-09-19T05:42:42;10.02;;;2.83;;
36009;SDS011;22076;52.182;5.404;2023-09-19T05:45:11;13.65;;;3.15;;
36009;SDS011;22076;52.182;5.404;2023-09-19T05:47:38;13.57;;;2.53;;
36009;SDS011;22076;52.182;5.404;2023-09-19T05:50:06;6.07;;;1.77;;
36009;SDS011;22076;52.182;5.404;2023-09-19T05:52:34;6.40;;;1.95;;
36009;SDS011;22076;52.182;5.404;2023-09-19T05:55:02;10.57;;;2.38;;
36009;SDS011;22076;52.182;5.404;2023-09-19T05:57:30;14.45;;;3.03;;
36009;SDS011;22076;52.182;5.404;2023-09-19T05:59:57;9.27;;;2.28;;
36009;SDS011;22076;52.182;5.404;2023-09-19T06:02:25;9.93;;;2.35;;
36009;SDS011;22076;52.182;5.404;2023-09-19T06:04:54;10.07;;;2.17;;
36009;SDS011;22076;52.182;5.404;2023-09-19T06:07:20;8.32;;;1.95;;
36009;SDS011;22076;52.182;5.404;2023-09-19T06:09:47;8.27;;;1.77;;
36009;SDS011;22076;52.182;5.404;2023-09-19T06:12:13;11.55;;;2.65;;
36009;SDS011;22076;52.182;5.404;2023-09-19T06:14:42;14.25;;;2.40;;
36009;SDS011;22076;52.182;5.404;2023-09-19T06:17:13;9.52;;;1.80;;
36009;SDS011;22076;52.182;5.404;2023-09-19T06:19:41;9.25;;;2.50;;
36009;SDS011;22076;52.182;5.404;2023-09-19T06:22:14;16.27;;;3.13;;
36009;SDS011;22076;52.182;5.404;2023-09-19T06:24:41;12.23;;;3.15;;
36009;SDS011;22076;52.182;5.404;2023-09-19T06:27:08;17.85;;;2.88;;
36009;SDS011;22076;52.182;5.404;2023-09-19T06:29:35;13.75;;;2.90;;
36009;SDS011;22076;52.182;5.404;2023-09-19T06:32:02;9.57;;;2.65;;
36009;SDS011;22076;52.182;5.404;2023-09-19T06:34:34;8.45;;;1.95;;
36009;SDS011;22076;52.182;5.404;2023-09-19T06:37:02;7.38;;;2.35;;
36009;SDS011;22076;52.182;5.404;2023-09-19T06:39:29;8.40;;;2.20;;
36009;SDS011;22076;52.182;5.404;2023-09-19T06:41:56;12.48;;;2.53;;
36009;SDS011;22076;52.182;5.404;2023-09-19T06:44:23;10.85;;;2.40;;
36009;SDS011;22076;52.182;5.404;2023-09-19T06:46:59;14.40;;;2.70;;
36009;SDS011;22076;52.182;5.404;2023-09-19T06:49:25;18.85;;;3.38;;
36009;SDS011;22076;52.182;5.404;2023-09-19T06:51:54;15.32;;;3.28;;
36009;SDS011;22076;52.182;5.404;2023-09-19T06:54:23;9.23;;;2.20;;
36009;SDS011;22076;52.182;5.404;2023-09-19T06:56:50;11.65;;;2.00;;
36009;SDS011;22076;52.182;5.404;2023-09-19T06:59:18;15.07;;;2.60;;
36009;SDS011;22076;52.182;5.404;2023-09-19T07:01:45;10.38;;;2.40;;
36009;SDS011;22076;52.182;5.404;2023-09-19T07:04:12;12.75;;;2.58;;
36009;SDS011;22076;52.182;5.404;2023-09-19T07:06:38;14.88;;;2.80;;
36009;SDS011;22076;52.182;5.404;2023-09-19T07:09:05;10.50;;;3.17;;
36009;SDS011;22076;52.182;5.404;2023-09-19T07:11:34;6.00;;;1.65;;
36009;SDS011;22076;52.182;5.404;2023-09-19T07:14:02;14.75;;;2.90;;
36009;SDS011;22076;52.182;5.404;2023-09-19T07:16:30;12.35;;;2.85;;
36009;SDS011;22076;52.182;5.404;2023-09-19T07:18:58;6.65;;;2.53;;
36009;SDS011;22076;52.182;5.404;2023-09-19T07:21:24;14.13;;;2.65;;
36009;SDS011;22076;52.182;5.404;2023-09-19T07:23:51;8.60;;;2.58;;
36009;SDS011;22076;52.182;5.404;2023-09-19T07:26:30;6.38;;;2.13;;
36009;SDS011;22076;52.182;5.404;2023-09-19T07:28:58;14.38;;;2.72;;
36009;SDS011;22076;52.182;5.404;2023-09-19T07:31:26;9.07;;;2.50;;
36009;SDS011;22076;52.182;5.404;2023-09-19T07:33:53;11.15;;;2.58;;
36009;SDS011;22076;52.182;5.404;2023-09-19T07:36:20;9.23;;;2.28;;
36009;SDS011;22076;52.182;5.404;2023-09-19T07:38:47;10.07;;;2.95;;
36009;SDS011;22076;52.182;5.404;2023-09-19T07:41:13;11.02;;;2.85;;
36009;SDS011;22076;52.182;5.404;2023-09-19T07:43:40;13.20;;;2.65;;
36009;SDS011;22076;52.182;5.404;2023-09-19T07:46:11;8.30;;;2.05;;
36009;SDS011;22076;52.182;5.404;2023-09-19T07:48:38;7.28;;;2.35;;
36009;SDS011;22076;52.182;5.404;2023-09-19T07:51:08;10.48;;;2.45;;
36009;SDS011;22076;52.182;5.404;2023-09-19T07:53:34;8.82;;;2.50;;
36009;SDS011;22076;52.182;5.404;2023-09-19T07:56:03;13.00;;;2.47;;
36009;SDS011;22076;52.182;5.404;2023-09-19T07:58:30;13.98;;;2.70;;
36009;SDS011;22076;52.182;5.404;2023-09-19T08:01:01;11.77;;;2.67;;
36009;SDS011;22076;52.182;5.404;2023-09-19T08:03:30;6.28;;;2.25;;
36009;SDS011;22076;52.182;5.404;2023-09-19T08:05:57;10.57;;;2.92;;
36009;SDS011;22076;52.182;5.404;2023-09-19T08:08:23;8.68;;;2.20;;
36009;SDS011;22076;52.182;5.404;2023-09-19T08:10:52;11.65;;;2.47;;
36009;SDS011;22076;52.182;5.404;2023-09-19T08:13:22;18.20;;;3.15;;
36009;SDS011;22076;52.182;5.404;2023-09-19T08:15:48;9.25;;;2.80;;
36009;SDS011;22076;52.182;5.404;2023-09-19T08:18:16;12.13;;;2.28;;
36009;SDS011;22076;52.182;5.404;2023-09-19T08:20:48;13.25;;;3.00;;
36009;SDS011;22076;52.182;5.404;2023-09-19T08:25:43;10.80;;;3.50;;
36009;SDS011;22076;52.182;5.404;2023-09-19T08:28:10;17.90;;;3.15;;
36009;SDS011;22076;52.182;5.404;2023-09-19T08:30:37;11.88;;;2.80;;
36009;SDS011;22076;52.182;5.404;2023-09-19T08:33:05;14.65;;;2.97;;
36009;SDS011;22076;52.182;5.404;2023-09-19T08:35:32;15.50;;;3.17;;
36009;SDS011;22076;52.182;5.404;2023-09-19T08:38:07;22.17;;;3.95;;
36009;SDS011;22076;52.182;5.404;2023-09-19T08:40:37;9.70;;;3.47;;
36009;SDS011;22076;52.182;5.404;2023-09-19T08:43:04;13.32;;;2.80;;
36009;SDS011;22076;52.182;5.404;2023-09-19T08:45:32;15.50;;;3.42;;
36009;SDS011;22076;52.182;5.404;2023-09-19T08:48:00;16.73;;;2.83;;
36009;SDS011;22076;52.182;5.404;2023-09-19T08:50:42;11.77;;;2.80;;
36009;SDS011;22076;52.182;5.404;2023-09-19T08:55:43;12.05;;;2.80;;
36009;SDS011;22076;52.182;5.404;2023-09-19T08:58:13;9.52;;;2.50;;
36009;SDS011;22076;52.182;5.404;2023-09-19T09:00:46;15.40;;;3.28;;
36009;SDS011;22076;52.182;5.404;2023-09-19T09:03:15;13.10;;;2.88;;
36009;SDS011;22076;52.182;5.404;2023-09-19T09:05:45;16.65;;;2.75;;
36009;SDS011;22076;52.182;5.404;2023-09-19T09:08:14;9.88;;;2.58;;
36009;SDS011;22076;52.182;5.404;2023-09-19T09:10:42;16.10;;;3.15;;
36009;SDS011;22076;52.182;5.404;2023-09-19T09:13:10;17.38;;;3.25;;
36009;SDS011;22076;52.182;5.404;2023-09-19T09:15:39;14.65;;;3.03;;
36009;SDS011;22076;52.182;5.404;2023-09-19T09:18:15;16.38;;;2.75;;
36009;SDS011;22076;52.182;5.404;2023-09-19T09:20:43;12.90;;;3.67;;
36009;SDS011;22076;52.182;5.404;2023-09-19T09:23:09;15.10;;;3.03;;
36009;SDS011;22076;52.182;5.404;2023-09-19T09:25:50;17.35;;;2.85;;
36009;SDS011;22076;52.182;5.404;2023-09-19T09:28:22;11.60;;;2.50;;
36009;SDS011;22076;52.182;5.404;2023-09-19T09:30:50;14.70;;;3.20;;
36009;SDS011;22076;52.182;5.404;2023-09-19T09:33:17;11.90;;;2.65;;
36009;SDS011;22076;52.182;5.404;2023-09-19T09:35:47;11.90;;;2.60;;
36009;SDS011;22076;52.182;5.404;2023-09-19T09:38:17;13.95;;;3.22;;
36009;SDS011;22076;52.182;5.404;2023-09-19T09:40:47;12.40;;;2.58;;
36009;SDS011;22076;52.182;5.404;2023-09-19T09:43:27;13.05;;;2.83;;
36009;SDS011;22076;52.182;5.404;2023-09-19T09:48:58;11.45;;;2.28;;
36009;SDS011;22076;52.182;5.404;2023-09-19T09:51:51;12.85;;;2.85;;
36009;SDS011;22076;52.182;5.404;2023-09-19T09:54:26;14.18;;;3.35;;
36009;SDS011;22076;52.182;5.404;2023-09-19T09:57:02;11.70;;;2.53;;
36009;SDS011;22076;52.182;5.404;2023-09-19T09:59:50;15.25;;;2.83;;
36009;SDS011;22076;52.182;5.404;2023-09-19T10:02:18;16.95;;;2.90;;
36009;SDS011;22076;52.182;5.404;2023-09-19T10:04:49;10.77;;;2.65;;
36009;SDS011;22076;52.182;5.404;2023-09-19T10:07:35;15.48;;;3.08;;
36009;SDS011;22076;52.182;5.404;2023-09-19T10:10:06;10.13;;;2.60;;
36009;SDS011;22076;52.182;5.404;2023-09-19T10:12:49;14.55;;;2.80;;
36009;SDS011;22076;52.182;5.404;2023-09-19T10:15:22;11.27;;;2.65;;
36009;SDS011;22076;52.182;5.404;2023-09-19T10:17:55;12.32;;;3.10;;
36009;SDS011;22076;52.182;5.404;2023-09-19T10:20:23;14.95;;;2.28;;
36009;SDS011;22076;52.182;5.404;2023-09-19T10:23:04;14.90;;;2.78;;
36009;SDS011;22076;52.182;5.404;2023-09-19T10:25:36;10.23;;;2.17;;
36009;SDS011;22076;52.182;5.404;2023-09-19T10:28:05;12.52;;;2.45;;
36009;SDS011;22076;52.182;5.404;2023-09-19T10:30:37;13.88;;;2.40;;
36009;SDS011;22076;52.182;5.404;2023-09-19T10:33:09;10.20;;;1.92;;
36009;SDS011;22076;52.182;5.404;2023-09-19T10:35:37;13.02;;;2.65;;
36009;SDS011;22076;52.182;5.404;2023-09-19T10:38:06;14.48;;;2.10;;
36009;SDS011;22076;52.182;5.404;2023-09-19T10:40:35;7.47;;;2.20;;
36009;SDS011;22076;52.182;5.404;2023-09-19T10:43:08;9.07;;;2.42;;
36009;SDS011;22076;52.182;5.404;2023-09-19T10:45:39;12.32;;;2.30;;
36009;SDS011;22076;52.182;5.404;2023-09-19T10:48:07;9.63;;;1.90;;
36009;SDS011;22076;52.182;5.404;2023-09-19T10:50:35;8.23;;;1.83;;
36009;SDS011;22076;52.182;5.404;2023-09-19T10:53:11;10.30;;;2.22;;
36009;SDS011;22076;52.182;5.404;2023-09-19T10:55:40;6.70;;;1.70;;
36009;SDS011;22076;52.182;5.404;2023-09-19T10:58:24;8.27;;;2.05;;
36009;SDS011;22076;52.182;5.404;2023-09-19T11:00:55;8.73;;;1.67;;
36009;SDS011;22076;52.182;5.404;2023-09-19T11:03:27;13.13;;;2.45;;
36009;SDS011;22076;52.182;5.404;2023-09-19T11:06:06;11.95;;;2.33;;
36009;SDS011;22076;52.182;5.404;2023-09-19T11:08:57;7.72;;;2.35;;
36009;SDS011;22076;52.182;5.404;2023-09-19T11:11:41;9.73;;;2.28;;
36009;SDS011;22076;52.182;5.404;2023-09-19T11:14:14;11.48;;;2.20;;
36009;SDS011;22076;52.182;5.404;2023-09-19T11:25:43;6.78;;;2.03;;
36009;SDS011;22076;52.182;5.404;2023-09-19T11:28:31;9.80;;;2.28;;
36009;SDS011;22076;52.182;5.404;2023-09-19T11:40:36;10.02;;;2.00;;
36009;SDS011;22076;52.182;5.404;2023-09-19T11:46:03;11.90;;;2.58;;
36009;SDS011;22076;52.182;5.404;2023-09-19T11:48:30;14.05;;;1.85;;
36009;SDS011;22076;52.182;5.404;2023-09-19T11:51:00;11.95;;;2.72;;
36009;SDS011;22076;52.182;5.404;2023-09-19T11:53:32;5.20;;;1.50;;
36009;SDS011;22076;52.182;5.404;2023-09-19T11:56:04;10.80;;;2.03;;
36009;SDS011;22076;52.182;5.404;2023-09-19T11:58:35;6.55;;;1.80;;
36009;SDS011;22076;52.182;5.404;2023-09-19T12:01:04;11.00;;;2.22;;
36009;SDS011;22076;52.182;5.404;2023-09-19T12:03:33;7.20;;;1.88;;
36009;SDS011;22076;52.182;5.404;2023-09-19T12:06:10;6.95;;;1.67;;
36009;SDS011;22076;52.182;5.404;2023-09-19T12:08:39;11.52;;;2.33;;
36009;SDS011;22076;52.182;5.404;2023-09-19T12:11:11;6.18;;;1.75;;
36009;SDS011;22076;52.182;5.404;2023-09-19T12:13:40;9.45;;;1.75;;
36009;SDS011;22076;52.182;5.404;2023-09-19T12:16:11;4.95;;;1.60;;
36009;SDS011;22076;52.182;5.404;2023-09-19T12:18:40;7.45;;;2.05;;
36009;SDS011;22076;52.182;5.404;2023-09-19T12:21:08;10.05;;;1.70;;
36009;SDS011;22076;52.182;5.404;2023-09-19T12:23:56;6.00;;;1.48;;
36009;SDS011;22076;52.182;5.404;2023-09-19T12:26:25;7.93;;;1.70;;
36009;SDS011;22076;52.182;5.404;2023-09-19T12:28:53;8.60;;;2.10;;
36009;SDS011;22076;52.182;5.404;2023-09-19T12:31:21;6.57;;;1.58;;
36009;SDS011;22076;52.182;5.404;2023-09-19T12:33:52;3.45;;;1.40;;
36009;SDS011;22076;52.182;5.404;2023-09-19T12:36:20;8.30;;;1.83;;
36009;SDS011;22076;52.182;5.404;2023-09-19T12:38:53;3.83;;;1.05;;
36009;SDS011;22076;52.182;5.404;2023-09-19T12:41:20;9.55;;;1.58;;
36009;SDS011;22076;52.182;5.404;2023-09-19T12:43:49;3.97;;;1.15;;
36009;SDS011;22076;52.182;5.404;2023-09-19T12:46:19;4.85;;;1.30;;
36009;SDS011;22076;52.182;5.404;2023-09-19T12:48:50;3.13;;;1.17;;
36009;SDS011;22076;52.182;5.404;2023-09-19T12:51:43;6.72;;;1.38;;
36009;SDS011;22076;52.182;5.404;2023-09-19T12:54:11;6.25;;;1.33;;
36009;SDS011;22076;52.182;5.404;2023-09-19T12:56:40;5.40;;;1.70;;
36009;SDS011;22076;52.182;5.404;2023-09-19T12:59:11;5.45;;;1.52;;
36009;SDS011;22076;52.182;5.404;2023-09-19T13:01:38;6.32;;;1.58;;
36009;SDS011;22076;52.182;5.404;2023-09-19T13:04:10;4.18;;;1.10;;
36009;SDS011;22076;52.182;5.404;2023-09-19T13:06:40;5.93;;;1.50;;
36009;SDS011;22076;52.182;5.404;2023-09-19T13:09:08;6.30;;;1.30;;
36009;SDS011;22076;52.182;5.404;2023-09-19T13:11:36;4.05;;;1.50;;
36009;SDS011;22076;52.182;5.404;2023-09-19T13:14:18;6.38;;;1.50;;
36009;SDS011;22076;52.182;5.404;2023-09-19T13:16:53;3.55;;;1.45;;
36009;SDS011;22076;52.182;5.404;2023-09-19T13:19:34;4.57;;;1.20;;
36009;SDS011;22076;52.182;5.404;2023-09-19T13:22:02;8.27;;;1.30;;
36009;SDS011;22076;52.182;5.404;2023-09-19T13:24:28;5.68;;;1.33;;
36009;SDS011;22076;52.182;5.404;2023-09-19T13:26:55;5.78;;;1.10;;
36009;SDS011;22076;52.182;5.404;2023-09-19T13:29:24;6.72;;;1.20;;
36009;SDS011;22076;52.182;5.404;2023-09-19T13:31:51;3.83;;;1.42;;
36009;SDS011;22076;52.182;5.404;2023-09-19T13:34:19;4.28;;;1.40;;
36009;SDS011;22076;52.182;5.404;2023-09-19T13:36:46;4.25;;;1.50;;
36009;SDS011;22076;52.182;5.404;2023-09-19T13:39:13;4.53;;;1.30;;
36009;SDS011;22076;52.182;5.404;2023-09-19T13:41:40;9.07;;;1.30;;
36009;SDS011;22076;52.182;5.404;2023-09-19T13:44:07;2.50;;;1.13;;
36009;SDS011;22076;52.182;5.404;2023-09-19T13:46:37;9.10;;;1.70;;
36009;SDS011;22076;52.182;5.404;2023-09-19T13:49:03;8.10;;;1.40;;
36009;SDS011;22076;52.182;5.404;2023-09-19T13:51:30;7.45;;;1.63;;
36009;SDS011;22076;52.182;5.404;2023-09-19T13:53:58;8.98;;;1.67;;
36009;SDS011;22076;52.182;5.404;2023-09-19T13:56:25;6.57;;;1.02;;
36009;SDS011;22076;52.182;5.404;2023-09-19T13:58:53;3.75;;;1.30;;
36009;SDS011;22076;52.182;5.404;2023-09-19T14:01:19;5.32;;;1.10;;
36009;SDS011;22076;52.182;5.404;2023-09-19T14:03:47;4.55;;;1.33;;
36009;SDS011;22076;52.182;5.404;2023-09-19T14:06:16;5.63;;;1.42;;
36009;SDS011;22076;52.182;5.404;2023-09-19T14:08:43;3.90;;;1.50;;
36009;SDS011;22076;52.182;5.404;2023-09-19T14:11:12;4.53;;;1.23;;
36009;SDS011;22076;52.182;5.404;2023-09-19T14:13:39;4.28;;;1.45;;
36009;SDS011;22076;52.182;5.404;2023-09-19T14:16:05;4.88;;;1.30;;
36009;SDS011;22076;52.182;5.404;2023-09-19T14:18:33;5.47;;;1.30;;
36009;SDS011;22076;52.182;5.404;2023-09-19T14:21:03;4.25;;;1.20;;
36009;SDS011;22076;52.182;5.404;2023-09-19T14:23:33;3.10;;;1.10;;
36009;SDS011;22076;52.182;5.404;2023-09-19T14:26:01;5.65;;;1.48;;
36009;SDS011;22076;52.182;5.404;2023-09-19T14:28:27;10.10;;;1.48;;
36009;SDS011;22076;52.182;5.404;2023-09-19T14:30:55;3.72;;;1.50;;
36009;SDS011;22076;52.182;5.404;2023-09-19T14:33:22;4.55;;;1.27;;
36009;SDS011;22076;52.182;5.404;2023-09-19T14:35:48;4.68;;;1.45;;
36009;SDS011;22076;52.182;5.404;2023-09-19T14:38:17;4.68;;;1.23;;
36009;SDS011;22076;52.182;5.404;2023-09-19T14:40:44;5.35;;;1.50;;
36009;SDS011;22076;52.182;5.404;2023-09-19T14:43:12;5.05;;;2.10;;
36009;SDS011;22076;52.182;5.404;2023-09-19T14:45:38;5.72;;;1.60;;
36009;SDS011;22076;52.182;5.404;2023-09-19T14:48:05;7.35;;;1.58;;
36009;SDS011;22076;52.182;5.404;2023-09-19T14:50:32;6.03;;;1.75;;
36009;SDS011;22076;52.182;5.404;2023-09-19T14:52:59;4.70;;;1.63;;
36009;SDS011;22076;52.182;5.404;2023-09-19T14:55:28;3.50;;;1.85;;
36009;SDS011;22076;52.182;5.404;2023-09-19T14:57:59;6.35;;;2.00;;
36009;SDS011;22076;52.182;5.404;2023-09-19T15:00:27;4.20;;;1.80;;
36009;SDS011;22076;52.182;5.404;2023-09-19T15:02:54;3.38;;;1.30;;
36009;SDS011;22076;52.182;5.404;2023-09-19T15:05:21;5.43;;;1.58;;
36009;SDS011;22076;52.182;5.404;2023-09-19T15:07:47;5.05;;;1.70;;
36009;SDS011;22076;52.182;5.404;2023-09-19T15:10:14;5.60;;;1.90;;
36009;SDS011;22076;52.182;5.404;2023-09-19T15:12:44;12.23;;;2.25;;
36009;SDS011;22076;52.182;5.404;2023-09-19T15:15:11;4.55;;;2.10;;
36009;SDS011;22076;52.182;5.404;2023-09-19T15:17:38;7.13;;;2.28;;
36009;SDS011;22076;52.182;5.404;2023-09-19T15:20:05;5.40;;;1.65;;
36009;SDS011;22076;52.182;5.404;2023-09-19T15:22:33;10.77;;;2.03;;
36009;SDS011;22076;52.182;5.404;2023-09-19T15:25:00;7.88;;;2.28;;
36009;SDS011;22076;52.182;5.404;2023-09-19T15:27:26;4.05;;;2.00;;
36009;SDS011;22076;52.182;5.404;2023-09-19T15:29:57;5.75;;;1.98;;
36009;SDS011;22076;52.182;5.404;2023-09-19T15:32:24;5.78;;;2.03;;